Tuesday, April 24, 2018, 8:50 PM EDT
Back to Local

KLEW, Auburn-lewiston

Location: Auburn, ME, United States Lat: 44.05
Local Time: 8:50 PM EDT ( 0:50 GMT) Lon: -70.283
Time Zone: US/Eastern Elev: 288 ft

Show me the last for .
Show Decoded

2018-04-24 19:56 METAR KLEW 242356Z AUTO 16008KT 10SM CLR 13/02 A3018 RMK AO2 SLP239 T01280022
                 10211 20128 55002 =
2018-04-24 19:31 METAR KLEW 242331Z AUTO 17011KT 10SM FEW001 14/02 A3018 RMK AO2 =
2018-04-24 18:56 METAR KLEW 242256Z AUTO 16011KT 10SM 15/02 A3018 RMK AO2 SLP236 T01500022 =
2018-04-24 17:56 METAR KLEW 242156Z AUTO 17011G16KT 10SM FEW002 16/01 A3019 RMK AO2 SLP241
                 T01610011 =
2018-04-24 17:52 METAR KLEW 242152Z AUTO 16011KT 10SM FEW002 16/01 A3019 RMK AO2 =
2018-04-24 16:56 METAR KLEW 242056Z AUTO 17015G22KT 10SM CLR 17/M01 A3019 RMK AO2 SLP240
                 T01721006 56012 =
2018-04-24 15:56 METAR KLEW 241956Z AUTO 17013G20KT 10SM FEW002 19/00 A3020 RMK AO2 SLP244
                 T01940000 =
2018-04-24 14:56 METAR KLEW 241856Z AUTO 18013G20KT 10SM FEW002 21/M01 A3020 RMK AO2 SLP245
                 T02111011 =
2018-04-24 14:47 METAR KLEW 241847Z AUTO 16012G19KT 10SM FEW002 21/M01 A3020 RMK AO2 =
2018-04-24 13:56 METAR KLEW 241756Z AUTO 15010G17KT 10SM CLR 21/M01 A3022 RMK AO2 SLP251
                 T02111006 10217 20056 56030 =
2018-04-24 12:56 METAR KLEW 241656Z AUTO 20011G18KT 10SM CLR 22/M06 A3025 RMK AO2 SLP260
                 T02171061 =
2018-04-24 11:56 METAR KLEW 241556Z AUTO VRB06KT 10SM FEW002 20/M03 A3028 RMK AO2 SLP269
                 T02001028 =
2018-04-24 11:32 METAR KLEW 241532Z AUTO 20006KT 10SM FEW002 19/M02 A3030 RMK AO2 =
2018-04-24 10:56 METAR KLEW 241456Z AUTO 19009KT 10SM 18/M02 A3031 RMK AO2 SLP281 T01781022 58013
                 =
2018-04-24 09:56 METAR KLEW 241356Z AUTO 16003KT 10SM FEW002 13/M02 A3033 RMK AO2 SLP289
                 T01331017 =
2018-04-24 09:46 METAR KLEW 241346Z AUTO 16004KT 10SM FEW002 13/M02 A3034 RMK AO2 =
2018-04-24 08:56 METAR KLEW 241256Z AUTO 02003KT 10SM 09/M02 A3035 RMK AO2 SLP294 T00941022 $ =
2018-04-24 07:56 METAR KLEW 241156Z AUTO 00000KT 10SM SCT002 06/M03 A3035 RMK AO2 SLP294
                 T00561033 10056 21033 53002 =
2018-04-24 07:05 METAR KLEW 241105Z AUTO 01003KT 10SM SCT002 02/M03 A3035 RMK AO2 FZRANO =
2018-04-24 06:56 METAR KLEW 241056Z AUTO 00000KT 10SM BKN002 01/M04 A3035 RMK AO2 SLP294
                 T00111039 FZRANO =
2018-04-24 06:37 METAR KLEW 241037Z AUTO 00000KT 10SM SCT002 M01/M04 A3035 RMK AO2 FZRANO =
2018-04-24 05:56 METAR KLEW 240956Z AUTO 18003KT 10SM CLR M03/M05 A3034 RMK AO2 SLP292 T10281050
                 FZRANO =
2018-04-24 04:56 METAR KLEW 240856Z AUTO 19003KT 10SM CLR M02/M05 A3034 RMK AO2 SLP293 T10221050
                 56005 FZRANO =
2018-04-24 03:56 METAR KLEW 240756Z AUTO 00000KT 10SM CLR M01/M04 A3035 RMK AO2 SLP295 T10061044
                 FZRANO =
2018-04-24 02:56 METAR KLEW 240656Z AUTO 00000KT 10SM CLR 02/M06 A3035 RMK AO2 SLP295 T00171061
                 FZRANO TSNO =
2018-04-24 01:56 METAR KLEW 240556Z AUTO 00000KT 10SM CLR 03/M07 A3036 RMK AO2 SLP299 T00331067
                 10106 20006 58007 TSNO =
2018-04-24 00:56 METAR KLEW 240456Z AUTO 00000KT 10SM CLR 02/M07 A3037 RMK AO2 SLP302 T00171072
                 FZRANO =
2018-04-23 23:56 METAR KLEW 240356Z AUTO 15004KT 10SM CLR 06/M08 A3038 RMK AO2 SLP305 T00561078
                 401831033 =
2018-04-23 22:56 METAR KLEW 240256Z AUTO 16003KT 10SM CLR 07/M09 A3038 RMK AO2 SLP306 T00721089
                 51006 =
2018-04-23 21:56 METAR KLEW 240156Z AUTO 18010KT 10SM CLR 08/M09 A3038 RMK AO2 SLP306 T00831094 =
2018-04-23 20:56 METAR KLEW 240056Z AUTO 18007KT 10SM CLR 09/M07 A3039 RMK AO2 SLP307 T00891072 =

Support USWX by starting your Amazon purchase here.